LTBF

Details ICAO LTBF (BZI)
Name BALIKESIR
Region Turkey
Timezone Europe/Istanbul (UTC+3.0)
Plans Departing 7
Arriving 13
Stats Elevation 340 ft / 104 m (AMSL)
Location 39.619259° 27.925960°
Runways 1
Magnetic Variation 5.143° E
Sunrise 2017-12-17 05:24:31 UTC / 2017-12-17 08:24:31 Local
Sunset 2017-12-17 14:46:59 UTC / 2017-12-17 17:46:59 Local
Advertisement - Login to hide

Runways

ID Width Length Bearing (true) Bearing (mag) Surface Threshold Offset Overrun Length
18 144 ft / 44 m 9,827 ft / 2,995 m 182.16° 177.02° Asphalt 0 ft / 0 m 527 ft / 161 m
36 144 ft / 44 m 9,827 ft / 2,995 m 2.16° 357.02° Asphalt 0 ft / 0 m 520 ft / 159 m

Map

Weather


0- 5 10 15 20 25 30 35+ Temperature / ° C

Clouds and Precipitation
Forecast for 2017-12-18 00:00 UTC. Updated 2 hours ago

Ground ~20,000 ft ~40,000 ft Winds

METAR

LTBF 172050Z 24007KT 200V260 9999 -SHRA SCT035 BKN100 11/10 Q1014 NOSIG

TAF

Not found

Frequencies

Recorded 123.92 MHz INFO
Approach 122.10 MHz APP
Tower 122.10 MHz TWR
Warning: Do not use this data for real-world aviation or navigation. No guarantee of current accuracy is given.